Time;durP1;ratioP1;P1;durP2;ratioP2;P2;SDS_P1;SDS_P2;PMS_P1;PMS_P2;Temp;Humidity;BMP_temperature;BMP_pressure;BME280_temperature;BME280_humidity;BME280_pressure;Samples;Min_cycle;Max_cycle;Signal;HPM_P1;HPM_P2
2023/02/17 00:01:08;;;;;;;11.30;7.22;;;-4.30;90.70;;;;;;5051222;28;20025;-86
2023/02/17 00:03:34;;;;;;;10.90;5.90;;;-4.30;90.30;;;;;;5052828;28;20017;-85
2023/02/17 00:06:08;;;;;;;9.00;5.28;;;-4.40;90.30;;;;;;5053591;28;20048;-85
2023/02/17 00:08:34;;;;;;;10.45;7.18;;;-4.40;90.30;;;;;;5033202;28;20033;-84
2023/02/17 00:11:31;;;;;;;;;;;;;;;;;;;;;
2023/02/17 00:14:00;;;;;;;8.45;6.35;;;-4.50;90.40;;;;;;5058417;28;20482;-85
2023/02/17 00:16:28;;;;;;;10.25;6.63;;;-4.50;90.50;;;;;;5058966;28;20029;-85
2023/02/17 00:18:59;;;;;;;10.98;5.93;;;-4.50;90.50;;;;;;5070693;28;20504;-80
2023/02/17 00:21:28;;;;;;;9.43;5.55;;;-4.40;90.70;;;;;;5073218;28;20025;-85
2023/02/17 00:23:54;;;;;;;8.68;6.15;;;-4.40;90.60;;;;;;5079702;28;20010;-84
2023/02/17 00:26:20;;;;;;;11.38;7.40;;;-4.40;90.60;;;;;;5075687;28;20052;-85
2023/02/17 00:28:47;;;;;;;10.40;6.40;;;-4.40;90.60;;;;;;5073815;28;20069;-82
2023/02/17 00:31:18;;;;;;;10.25;6.53;;;-4.40;90.60;;;;;;5058827;28;20274;-83
2023/02/17 00:33:44;;;;;;;13.18;7.70;;;-4.40;90.50;;;;;;5033701;28;20021;-85
2023/02/17 00:36:32;;;;;;;9.68;6.82;;;-4.40;90.60;;;;;;5053032;28;20114;-85
2023/02/17 00:38:58;;;;;;;10.55;7.40;;;-4.30;90.80;;;;;;5050069;28;20060;-80
2023/02/17 00:41:26;;;;;;;10.20;7.53;;;-4.40;90.60;;;;;;5051773;28;20029;-82
2023/02/17 00:43:52;;;;;;;12.95;7.25;;;-4.40;90.50;;;;;;5056085;28;20021;-86
2023/02/17 00:46:18;;;;;;;9.30;6.53;;;-4.50;90.40;;;;;;5065246;28;20511;-82
2023/02/17 00:48:44;;;;;;;11.82;7.30;;;-4.50;90.60;;;;;;5073486;28;20036;-87
2023/02/17 00:51:10;;;;;;;12.23;7.22;;;-4.50;90.80;;;;;;5058868;28;20079;-84
2023/02/17 00:53:37;;;;;;;14.25;8.43;;;-4.50;90.80;;;;;;5057452;28;20108;-85
2023/02/17 00:56:04;;;;;;;10.98;7.60;;;-4.40;90.80;;;;;;5038192;28;20431;-84
2023/02/17 00:58:30;;;;;;;9.05;6.53;;;-4.40;90.80;;;;;;5049553;28;20025;-84
2023/02/17 01:00:57;;;;;;;12.13;7.43;;;-4.40;90.80;;;;;;5040120;28;20036;-83
2023/02/17 01:03:23;;;;;;;8.02;6.57;;;-4.40;91.00;;;;;;5056635;28;20025;-84
2023/02/17 01:06:12;;;;;;;11.90;7.40;;;-4.40;90.80;;;;;;5039783;28;20183;-83
2023/02/17 01:08:38;;;;;;;16.17;8.02;;;-4.40;90.80;;;;;;4999128;28;20042;-82
2023/02/17 01:11:04;;;;;;;12.63;8.10;;;-4.40;90.80;;;;;;4981919;28;20031;-83
2023/02/17 01:13:30;;;;;;;13.80;7.35;;;-4.40;90.70;;;;;;4979826;28;20084;-83
2023/02/17 01:15:56;;;;;;;6.70;5.65;;;-4.40;90.80;;;;;;4992446;28;20050;-84
2023/02/17 01:18:26;;;;;;;8.65;5.40;;;-4.40;90.70;;;;;;4995227;28;20098;-85
2023/02/17 01:20:55;;;;;;;10.05;6.25;;;-4.50;90.50;;;;;;4997888;28;20022;-84
2023/02/17 01:23:21;;;;;;;8.45;5.88;;;-4.60;90.80;;;;;;4980108;28;20053;-84
2023/02/17 01:25:49;;;;;;;13.20;5.45;;;-4.60;90.60;;;;;;4993244;28;20046;-84
2023/02/17 01:28:19;;;;;;;7.35;5.25;;;-4.70;90.70;;;;;;4995491;28;20027;-82
2023/02/17 01:30:45;;;;;;;10.60;6.22;;;-4.70;90.80;;;;;;4993565;28;20479;-83
2023/02/17 01:33:11;;;;;;;7.85;5.35;;;-4.60;90.90;;;;;;4982698;28;20065;-84
2023/02/17 01:35:37;;;;;;;8.60;6.65;;;-4.50;90.90;;;;;;4972104;28;20126;-83
2023/02/17 01:38:03;;;;;;;10.70;6.28;;;-4.60;90.70;;;;;;4987165;28;20054;-83
2023/02/17 01:40:29;;;;;;;14.23;6.90;;;-4.60;90.70;;;;;;5052889;28;20565;-84
2023/02/17 01:42:54;;;;;;;11.60;7.03;;;-4.60;90.90;;;;;;5044689;28;20028;-85
2023/02/17 01:45:20;;;;;;;9.60;6.85;;;-4.50;91.00;;;;;;5054730;28;20021;-83
2023/02/17 01:47:56;;;;;;;10.38;6.60;;;-4.40;91.00;;;;;;5058197;28;20025;-85
2023/02/17 01:50:27;;;;;;;12.10;7.07;;;-4.40;91.00;;;;;;5056238;28;20025;-84
2023/02/17 01:52:54;;;;;;;10.18;7.22;;;-4.30;90.90;;;;;;5055004;28;20052;-85
2023/02/17 01:55:22;;;;;;;11.60;7.00;;;-4.30;90.90;;;;;;5054635;28;20031;-85
2023/02/17 01:57:50;;;;;;;11.57;6.60;;;-4.30;90.80;;;;;;5056472;28;20086;-82
2023/02/17 02:00:18;;;;;;;9.70;7.45;;;-4.30;90.90;;;;;;5030129;28;20025;-84
2023/02/17 02:02:47;;;;;;;9.05;6.60;;;-4.30;90.80;;;;;;5059935;28;20384;-83
2023/02/17 02:05:13;;;;;;;11.20;7.38;;;-4.20;90.70;;;;;;5056294;28;20021;-84
2023/02/17 02:07:42;;;;;;;11.02;6.70;;;-4.30;90.70;;;;;;5025472;28;20370;-84
2023/02/17 02:10:09;;;;;;;12.57;7.55;;;-4.20;90.80;;;;;;5050880;28;20028;-83
2023/02/17 02:12:37;;;;;;;22.35;11.20;;;-4.20;90.70;;;;;;5037059;28;20048;-85
2023/02/17 02:15:09;;;;;;;9.50;5.82;;;-4.20;90.80;;;;;;5036324;28;20091;-83
2023/02/17 02:17:49;;;;;;;9.63;6.28;;;-4.30;90.70;;;;;;5035642;28;20037;-84
2023/02/17 02:20:30;;;;;;;9.43;5.88;;;-4.30;90.70;;;;;;5040084;28;20021;-83
2023/02/17 02:23:18;;;;;;;11.35;7.60;;;-4.30;90.80;;;;;;5057407;28;20033;-82
2023/02/17 02:26:21;;;;;;;9.82;7.43;;;-4.40;90.70;;;;;;5053797;28;20033;-85
2023/02/17 02:29:07;;;;;;;9.73;6.47;;;-4.40;90.70;;;;;;5053963;28;20024;-83
2023/02/17 02:31:37;;;;;;;12.93;7.47;;;-4.40;90.70;;;;;;5054121;28;20045;-84
2023/02/17 02:34:08;;;;;;;11.55;6.43;;;-4.50;90.70;;;;;;5058810;28;20033;-83
2023/02/17 02:36:54;;;;;;;11.57;7.47;;;-4.50;91.00;;;;;;5056543;28;20036;-81
2023/02/17 02:39:22;;;;;;;13.48;7.10;;;-4.50;91.00;;;;;;5051210;28;20041;-83
2023/02/17 02:41:57;;;;;;;9.90;7.13;;;-4.60;91.00;;;;;;5060809;28;20017;-81
2023/02/17 02:44:23;;;;;;;10.55;7.68;;;-4.60;91.20;;;;;;5069752;28;20047;-81
2023/02/17 02:46:57;;;;;;;11.05;6.57;;;-4.60;91.30;;;;;;5070749;28;20033;-81
2023/02/17 02:49:23;;;;;;;12.45;7.90;;;-4.50;91.50;;;;;;5056578;28;20020;-82
2023/02/17 02:52:12;;;;;;;11.85;6.60;;;-4.50;91.50;;;;;;5069656;28;20028;-82
2023/02/17 02:55:10;;;;;;;13.82;7.95;;;-4.40;91.60;;;;;;5057257;28;20020;-81
2023/02/17 02:57:45;;;;;;;10.48;8.15;;;-4.40;91.60;;;;;;5047868;28;20413;-82
2023/02/17 03:00:20;;;;;;;12.02;6.55;;;-4.30;91.60;;;;;;5054453;28;20172;-81
2023/02/17 03:02:51;;;;;;;11.10;6.72;;;-4.30;91.40;;;;;;5055081;28;20025;-82
2023/02/17 03:05:35;;;;;;;10.88;7.57;;;-4.30;91.50;;;;;;5073206;28;20012;-83
2023/02/17 03:08:14;;;;;;;13.02;7.50;;;-4.30;91.60;;;;;;5064084;28;20033;-81
2023/02/17 03:10:47;;;;;;;13.52;8.50;;;-4.30;91.60;;;;;;5037004;28;20025;-84
2023/02/17 03:13:17;;;;;;;13.70;8.57;;;-4.30;91.60;;;;;;5056857;28;20045;-83
2023/02/17 03:15:44;;;;;;;14.48;7.65;;;-4.20;91.60;;;;;;5054552;28;20017;-82
2023/02/17 03:18:10;;;;;;;12.93;7.35;;;-4.30;91.60;;;;;;5027388;28;20025;-84
2023/02/17 03:20:42;;;;;;;13.77;9.45;;;-4.30;91.70;;;;;;5038297;28;20032;-84
2023/02/17 03:23:10;;;;;;;14.02;7.35;;;-4.20;91.80;;;;;;5055298;28;20025;-83
2023/02/17 03:25:36;;;;;;;14.80;8.05;;;-4.20;91.80;;;;;;5054514;28;20033;-84
2023/02/17 03:28:02;;;;;;;14.15;8.15;;;-4.20;91.70;;;;;;5056008;28;20021;-85
2023/02/17 03:30:28;;;;;;;10.68;7.32;;;-4.20;91.80;;;;;;5036475;28;20068;-84
2023/02/17 03:32:54;;;;;;;9.18;7.35;;;-4.10;91.80;;;;;;5058372;28;20052;-85
2023/02/17 03:35:20;;;;;;;11.77;7.38;;;-4.10;91.80;;;;;;5056530;28;20029;-84
2023/02/17 03:37:45;;;;;;;13.55;7.60;;;-4.10;91.70;;;;;;5056959;28;20020;-82
2023/02/17 03:40:11;;;;;;;10.75;7.70;;;-4.10;91.80;;;;;;5055982;28;20087;-84
2023/02/17 03:42:37;;;;;;;12.00;7.05;;;-4.20;91.60;;;;;;5052503;28;20028;-84
2023/02/17 03:45:04;;;;;;;10.13;6.50;;;-4.20;91.60;;;;;;5055742;28;20419;-84
2023/02/17 03:47:30;;;;;;;11.10;8.03;;;-4.30;91.50;;;;;;5043906;28;20029;-84
2023/02/17 03:49:56;;;;;;;14.27;9.38;;;-4.30;91.70;;;;;;5054341;28;20036;-84
2023/02/17 03:52:22;;;;;;;15.27;8.88;;;-4.30;91.90;;;;;;5059852;28;20021;-84
2023/02/17 03:54:47;;;;;;;13.60;8.88;;;-4.30;91.90;;;;;;5053727;28;20017;-84
2023/02/17 03:57:13;;;;;;;13.57;8.77;;;-4.20;91.90;;;;;;5035783;28;20083;-84
2023/02/17 03:59:39;;;;;;;16.60;8.90;;;-4.10;91.90;;;;;;5052776;28;20041;-85
2023/02/17 04:02:05;;;;;;;15.25;8.70;;;-4.10;91.80;;;;;;5052540;28;20443;-84
2023/02/17 04:04:31;;;;;;;13.43;9.02;;;-4.10;91.90;;;;;;5035155;28;20100;-83
2023/02/17 04:06:57;;;;;;;15.45;9.77;;;-4.10;91.90;;;;;;5054931;28;20040;-87
2023/02/17 04:09:23;;;;;;;17.33;9.32;;;-4.10;91.80;;;;;;5049312;28;20100;-83
2023/02/17 04:11:49;;;;;;;17.08;11.35;;;-4.10;91.80;;;;;;5051851;28;20048;-83
2023/02/17 04:14:14;;;;;;;14.25;8.98;;;-4.20;91.80;;;;;;5051590;28;20028;-84
2023/02/17 04:16:40;;;;;;;20.30;10.77;;;-4.20;91.80;;;;;;5050245;28;20040;-84
2023/02/17 04:19:06;;;;;;;17.63;9.65;;;-4.20;91.90;;;;;;5036516;28;20025;-83
2023/02/17 04:21:33;;;;;;;19.48;10.95;;;-4.20;92.00;;;;;;5049614;28;20017;-84
2023/02/17 04:24:00;;;;;;;18.33;9.70;;;-4.20;92.10;;;;;;5054591;28;20020;-84
2023/02/17 04:26:26;;;;;;;13.88;9.32;;;-4.20;92.00;;;;;;5070732;28;20033;-83
2023/02/17 04:28:52;;;;;;;14.35;10.13;;;-4.30;91.90;;;;;;5052678;28;20025;-85
2023/02/17 04:31:18;;;;;;;16.58;10.88;;;-4.30;92.00;;;;;;5061415;28;20035;-84
2023/02/17 04:33:44;;;;;;;18.30;10.73;;;-4.30;92.10;;;;;;5056941;28;20044;-84
2023/02/17 04:36:10;;;;;;;18.52;11.68;;;-4.30;92.20;;;;;;5036736;28;20025;-83
2023/02/17 04:38:37;;;;;;;17.08;11.07;;;-4.30;92.30;;;;;;5056625;28;20032;-85
2023/02/17 04:41:05;;;;;;;20.40;10.53;;;-4.30;92.50;;;;;;5054529;28;20025;-83
2023/02/17 04:43:31;;;;;;;20.00;11.70;;;-4.30;92.60;;;;;;5053249;28;20535;-84
2023/02/17 04:45:57;;;;;;;14.95;10.98;;;-4.30;92.70;;;;;;5039591;28;20036;-83
2023/02/17 04:48:23;;;;;;;19.33;12.40;;;-4.30;92.60;;;;;;5055685;28;20390;-85
2023/02/17 04:50:49;;;;;;;18.25;12.30;;;-4.30;92.70;;;;;;5044868;28;20116;-84
2023/02/17 04:53:16;;;;;;;18.30;10.40;;;-4.30;92.80;;;;;;5060708;28;20017;-84
2023/02/17 04:55:42;;;;;;;21.85;12.65;;;-4.20;92.70;;;;;;5066225;28;20029;-83
2023/02/17 04:58:09;;;;;;;17.40;10.85;;;-4.30;92.70;;;;;;5071711;28;20006;-83
2023/02/17 05:00:43;;;;;;;20.90;12.10;;;-4.30;92.70;;;;;;5047411;28;20025;-84
2023/02/17 05:03:09;;;;;;;18.23;10.05;;;-4.40;92.80;;;;;;5075857;28;20023;-82
2023/02/17 05:05:35;;;;;;;16.85;11.07;;;-4.40;92.80;;;;;;5074660;28;20029;-81
2023/02/17 05:08:01;;;;;;;21.90;13.18;;;-4.40;92.80;;;;;;5072560;28;20027;-82
2023/02/17 05:10:27;;;;;;;20.95;11.75;;;-4.50;92.80;;;;;;5071637;28;20080;-83
2023/02/17 05:12:52;;;;;;;19.42;12.35;;;-4.50;93.00;;;;;;5063144;28;20041;-83
2023/02/17 05:15:19;;;;;;;15.55;10.48;;;-4.50;93.00;;;;;;5059527;28;20047;-83
2023/02/17 05:17:44;;;;;;;23.38;14.40;;;-4.40;93.10;;;;;;5056681;28;20020;-85
2023/02/17 05:20:10;;;;;;;18.75;11.93;;;-4.40;93.10;;;;;;5042171;28;20025;-83
2023/02/17 05:22:36;;;;;;;22.48;13.30;;;-4.40;93.20;;;;;;5038479;28;20024;-84
2023/02/17 05:25:03;;;;;;;23.50;13.77;;;-4.30;93.20;;;;;;5055487;28;20386;-84
2023/02/17 05:27:29;;;;;;;22.23;13.38;;;-4.30;93.20;;;;;;5055516;28;20025;-84
2023/02/17 05:29:55;;;;;;;19.85;13.43;;;-4.30;93.20;;;;;;5054868;28;20021;-82
2023/02/17 05:32:23;;;;;;;20.75;11.93;;;-4.30;93.30;;;;;;5043567;28;20123;-85
2023/02/17 05:34:49;;;;;;;23.70;14.02;;;-4.20;93.40;;;;;;5056073;28;20017;-85
2023/02/17 05:37:15;;;;;;;20.83;14.43;;;-4.10;93.40;;;;;;5039225;28;20495;-84
2023/02/17 05:39:41;;;;;;;23.63;12.80;;;-4.10;93.40;;;;;;5061917;28;20029;-85
2023/02/17 05:42:07;;;;;;;25.67;15.05;;;-4.00;93.40;;;;;;5065021;28;20036;-84
2023/02/17 05:44:33;;;;;;;27.92;13.82;;;-4.00;93.40;;;;;;5070674;28;20029;-84
2023/02/17 05:46:59;;;;;;;19.48;12.10;;;-4.00;93.30;;;;;;5062500;28;20033;-84
2023/02/17 05:49:25;;;;;;;21.35;13.05;;;-3.90;93.40;;;;;;5056092;28;20017;-85
2023/02/17 05:51:51;;;;;;;25.65;15.77;;;-3.90;93.40;;;;;;5055705;28;20028;-83
2023/02/17 05:54:18;;;;;;;22.33;14.57;;;-3.80;93.60;;;;;;5040032;28;20025;-83
2023/02/17 05:56:44;;;;;;;25.33;15.85;;;-3.80;93.50;;;;;;5042730;28;20063;-85
2023/02/17 05:59:10;;;;;;;22.15;13.75;;;-3.70;93.50;;;;;;5041771;28;20025;-85
2023/02/17 06:01:37;;;;;;;22.02;13.05;;;-3.80;93.30;;;;;;5065057;28;20032;-84
2023/02/17 06:04:03;;;;;;;25.42;16.17;;;-3.80;93.40;;;;;;5063836;28;20021;-85
2023/02/17 06:06:29;;;;;;;23.73;14.18;;;-3.80;93.60;;;;;;5077894;28;20033;-85
2023/02/17 06:08:55;;;;;;;17.15;10.32;;;-3.70;93.70;;;;;;5077565;28;20028;-84
2023/02/17 06:11:22;;;;;;;19.02;11.40;;;-3.70;93.50;;;;;;5040317;28;20051;-83
2023/02/17 06:13:48;;;;;;;18.35;9.93;;;-3.70;93.30;;;;;;5064669;28;20033;-81
2023/02/17 06:16:14;;;;;;;19.20;12.15;;;-3.60;93.40;;;;;;5063530;28;20070;-83
2023/02/17 06:18:40;;;;;;;19.27;12.65;;;-3.60;93.30;;;;;;5055415;28;20025;-84
2023/02/17 06:21:06;;;;;;;17.88;11.60;;;-3.60;93.00;;;;;;5048936;28;20020;-83
2023/02/17 06:23:32;;;;;;;19.27;12.70;;;-3.60;93.00;;;;;;5057215;28;20104;-83
2023/02/17 06:25:58;;;;;;;23.05;13.10;;;-3.50;93.00;;;;;;5065777;28;20547;-84
2023/02/17 06:28:24;;;;;;;20.90;13.55;;;-3.50;92.80;;;;;;5058517;28;20139;-84
2023/02/17 06:30:50;;;;;;;21.88;13.00;;;-3.40;92.80;;;;;;5057799;28;20508;-83
2023/02/17 06:33:16;;;;;;;19.40;13.45;;;-3.40;92.70;;;;;;5058859;28;20104;-85
2023/02/17 06:35:46;;;;;;;15.38;10.85;;;-3.30;92.60;;;;;;5060257;28;20513;-84
2023/02/17 06:38:12;;;;;;;15.60;9.88;;;-3.30;92.60;;;;;;5061056;28;20487;-85
2023/02/17 06:40:38;;;;;;;17.13;10.88;;;-3.30;92.40;;;;;;5043247;28;20048;-85
2023/02/17 06:43:06;;;;;;;21.83;10.57;;;-3.40;92.40;;;;;;5062295;28;20029;-87
2023/02/17 06:45:32;;;;;;;15.60;10.23;;;-3.30;92.60;;;;;;5060566;28;20033;-83
2023/02/17 06:47:58;;;;;;;15.27;11.05;;;-3.30;92.60;;;;;;5058649;28;20039;-82
2023/02/17 06:50:24;;;;;;;18.33;11.27;;;-3.20;92.60;;;;;;5036912;28;20037;-83
2023/02/17 06:52:50;;;;;;;19.42;11.15;;;-3.20;92.60;;;;;;5039047;28;20380;-83
2023/02/17 06:55:16;;;;;;;21.95;12.15;;;-3.20;92.60;;;;;;5057004;28;20390;-82
2023/02/17 06:57:41;;;;;;;20.10;11.15;;;-3.30;92.40;;;;;;5043967;28;20116;-83
2023/02/17 07:00:08;;;;;;;19.75;12.38;;;-3.30;92.50;;;;;;5031400;28;20017;-83
2023/02/17 07:02:37;;;;;;;21.42;12.10;;;-3.30;92.60;;;;;;5039841;28;20051;-84
2023/02/17 07:05:03;;;;;;;17.40;11.38;;;-3.20;92.60;;;;;;5065933;28;20311;-83
2023/02/17 07:07:29;;;;;;;16.55;9.57;;;-3.30;92.60;;;;;;5038373;28;20505;-84
2023/02/17 07:09:55;;;;;;;16.90;9.18;;;-3.20;92.70;;;;;;5038057;28;20025;-82
2023/02/17 07:12:21;;;;;;;20.55;11.48;;;-3.30;92.70;;;;;;5057030;28;20647;-84
2023/02/17 07:14:47;;;;;;;17.77;9.57;;;-3.40;92.70;;;;;;5057012;28;20029;-83
2023/02/17 07:17:13;;;;;;;18.77;10.73;;;-3.40;92.60;;;;;;5057440;28;20029;-84
2023/02/17 07:19:39;;;;;;;14.60;8.20;;;-3.40;92.70;;;;;;5041217;28;20124;-84
2023/02/17 07:22:05;;;;;;;14.85;9.73;;;-3.30;92.70;;;;;;5052855;28;20111;-82
2023/02/17 07:24:32;;;;;;;19.33;10.15;;;-3.30;92.80;;;;;;5054817;28;20033;-83
2023/02/17 07:26:59;;;;;;;17.52;10.50;;;-3.30;92.70;;;;;;5051733;28;20064;-82
2023/02/17 07:29:26;;;;;;;16.40;10.43;;;-3.30;92.60;;;;;;5049652;28;20032;-81
2023/02/17 07:31:52;;;;;;;20.38;9.32;;;-3.30;92.30;;;;;;5058481;28;20071;-83
2023/02/17 07:34:18;;;;;;;20.77;10.95;;;-3.40;92.60;;;;;;5049399;28;20140;-82
2023/02/17 07:36:44;;;;;;;14.25;7.78;;;-3.40;92.70;;;;;;5058969;28;20048;-83
2023/02/17 07:39:10;;;;;;;13.15;8.45;;;-3.50;92.70;;;;;;5062682;28;20509;-84
2023/02/17 07:41:36;;;;;;;16.05;8.45;;;-3.60;92.50;;;;;;5062946;28;20029;-83
2023/02/17 07:44:02;;;;;;;20.80;11.02;;;-3.70;92.50;;;;;;5061126;28;20029;-84
2023/02/17 07:46:28;;;;;;;16.70;10.75;;;-3.70;92.60;;;;;;5076617;28;20054;-86
2023/02/17 07:48:57;;;;;;;13.35;8.38;;;-3.70;92.70;;;;;;5068672;28;20017;-86
2023/02/17 07:51:24;;;;;;;17.42;9.40;;;-3.60;92.80;;;;;;5027739;28;20025;-84
2023/02/17 07:53:52;;;;;;;13.48;9.10;;;-3.40;92.60;;;;;;5060130;28;20421;-84
2023/02/17 07:56:22;;;;;;;14.80;10.32;;;-3.30;92.20;;;;;;5060093;28;20144;-84
2023/02/17 07:58:52;;;;;;;18.70;10.85;;;-3.30;92.20;;;;;;5059467;28;20021;-85
2023/02/17 08:01:20;;;;;;;19.15;10.60;;;-3.10;92.10;;;;;;5037750;28;20026;-85
2023/02/17 08:03:47;;;;;;;17.88;11.32;;;-2.70;92.10;;;;;;5062958;28;20098;-86
2023/02/17 08:06:17;;;;;;;18.08;12.30;;;-2.40;91.80;;;;;;5072559;28;20033;-85
2023/02/17 08:14:13;;;;;;;17.40;12.10;;;-1.70;90.60;;;;;;5056410;28;20076;-87
2023/02/17 08:16:39;;;;;;;17.42;11.88;;;-1.30;90.40;;;;;;5045537;28;20033;-83
2023/02/17 08:19:06;;;;;;;16.10;11.43;;;-1.00;90.20;;;;;;5042123;28;20029;-87
2023/02/17 08:21:32;;;;;;;17.73;11.25;;;-0.70;89.50;;;;;;5031013;28;20032;-86
2023/02/17 08:23:58;;;;;;;13.82;8.77;;;-0.40;88.30;;;;;;5034195;28;20033;-86
2023/02/17 08:26:24;;;;;;;10.13;7.22;;;-0.40;86.00;;;;;;5026596;28;20034;-86
2023/02/17 08:28:52;;;;;;;11.10;8.23;;;-0.60;84.40;;;;;;5024677;28;20054;-88
2023/02/17 08:31:24;;;;;;;10.50;6.43;;;0.00;86.80;;;;;;5038972;28;20053;-84
2023/02/17 08:33:50;;;;;;;10.50;6.68;;;0.70;85.10;;;;;;5018678;28;20399;-85
2023/02/17 08:36:16;;;;;;;13.80;7.75;;;;;;;;;;5026180;28;20030;-86
2023/02/17 08:38:49;;;;;;;8.43;6.03;;;2.00;81.00;;;;;;5033751;28;20083;-85
2023/02/17 08:41:28;;;;;;;8.30;5.82;;;3.10;79.20;;;;;;5022950;28;20057;-87
2023/02/17 08:43:56;;;;;;;8.77;6.10;;;3.10;72.50;;;;;;5022810;28;20021;-84
2023/02/17 08:46:22;;;;;;;8.73;7.00;;;3.10;73.70;;;;;;4998289;28;20042;-82
2023/02/17 08:48:49;;;;;;;10.32;6.90;;;3.50;72.30;;;;;;5022753;28;20085;-84
2023/02/17 08:51:22;;;;;;;9.43;7.80;;;3.60;71.00;;;;;;5020539;28;20026;-85
2023/02/17 08:53:49;;;;;;;11.25;7.30;;;3.70;70.90;;;;;;5019700;28;20037;-86
2023/02/17 08:56:16;;;;;;;10.90;8.45;;;3.50;69.50;;;;;;5022253;28;20390;-86
2023/02/17 08:58:42;;;;;;;12.55;8.88;;;2.70;68.50;;;;;;5022796;28;20095;-85
2023/02/17 09:01:08;;;;;;;11.52;7.78;;;1.90;70.50;;;;;;5039182;28;20033;-84
2023/02/17 09:03:36;;;;;;;10.98;7.03;;;1.90;72.80;;;;;;5039813;28;20045;-83
2023/02/17 09:06:04;;;;;;;14.68;8.98;;;1.80;71.80;;;;;;5012655;28;20105;-83
2023/02/17 09:08:33;;;;;;;15.55;9.48;;;1.80;73.90;;;;;;5038324;28;20026;-83
2023/02/17 09:11:00;;;;;;;12.43;8.93;;;1.90;72.80;;;;;;5043233;28;20442;-82
2023/02/17 09:13:26;;;;;;;14.55;10.02;;;1.70;72.70;;;;;;5037902;28;20414;-83
2023/02/17 09:15:57;;;;;;;13.77;8.40;;;1.20;72.90;;;;;;5032153;28;20037;-82
2023/02/17 09:18:24;;;;;;;14.20;11.07;;;0.60;74.00;;;;;;5038627;28;20026;-83
2023/02/17 09:20:51;;;;;;;14.55;9.65;;;0.30;75.20;;;;;;5029101;28;20474;-85
2023/02/17 09:23:17;;;;;;;14.35;10.32;;;0.10;76.10;;;;;;5013268;28;20497;-84
2023/02/17 09:25:44;;;;;;;16.00;10.17;;;-0.10;77.00;;;;;;5044399;28;20072;-83
2023/02/17 09:28:12;;;;;;;16.83;10.23;;;-0.30;77.80;;;;;;5018845;28;20258;-85
2023/02/17 09:30:39;;;;;;;18.40;10.82;;;-0.40;78.50;;;;;;5024953;28;20029;-85
2023/02/17 09:33:05;;;;;;;18.05;10.40;;;-0.60;78.60;;;;;;5040532;28;20386;-86
2023/02/17 09:35:31;;;;;;;15.45;10.25;;;-1.10;79.80;;;;;;5037120;28;20025;-85
2023/02/17 09:37:57;;;;;;;13.43;9.85;;;-1.40;81.10;;;;;;5037628;28;20081;-84
2023/02/17 09:40:28;;;;;;;17.02;8.82;;;;;;;;;;5044910;28;20026;-86
2023/02/17 09:42:54;;;;;;;17.77;11.90;;;-1.60;82.30;;;;;;5030507;28;20060;-84
2023/02/17 09:45:31;;;;;;;15.93;8.40;;;-1.60;83.20;;;;;;5056560;28;20043;-83
2023/02/17 09:48:01;;;;;;;16.67;7.13;;;-1.60;83.00;;;;;;5026934;28;20009;-82
2023/02/17 09:50:40;;;;;;;15.68;9.50;;;-1.90;83.50;;;;;;5035136;28;20018;-84
2023/02/17 09:53:30;;;;;;;16.05;9.95;;;-2.10;84.00;;;;;;5042083;28;20033;-85
2023/02/17 09:56:00;;;;;;;16.25;9.90;;;-2.10;84.40;;;;;;5032506;28;20037;-84
2023/02/17 09:58:30;;;;;;;18.25;10.60;;;-1.90;84.90;;;;;;5035545;28;20132;-87
2023/02/17 10:00:59;;;;;;;15.77;9.48;;;-1.70;84.80;;;;;;5035946;28;20024;-85
2023/02/17 10:03:38;;;;;;;14.40;9.75;;;-1.60;84.40;;;;;;5043716;28;20449;-87
2023/02/17 10:06:24;;;;;;;15.15;9.40;;;-1.60;83.90;;;;;;5045409;28;20029;-85
2023/02/17 10:09:06;;;;;;;12.98;8.18;;;-1.50;83.50;;;;;;5024557;28;20029;-85
2023/02/17 10:11:47;;;;;;;14.65;8.68;;;-1.70;83.10;;;;;;5019271;28;20045;-86
2023/02/17 10:14:28;;;;;;;16.77;9.45;;;-2.00;83.70;;;;;;5052431;28;20031;-84
2023/02/17 10:17:15;;;;;;;10.65;6.05;;;-2.20;84.80;;;;;;5049094;28;20048;-85
2023/02/17 10:20:10;;;;;;;11.07;7.70;;;-2.30;84.80;;;;;;5058994;28;20078;-84
2023/02/17 10:22:37;;;;;;;13.05;8.20;;;-2.50;85.10;;;;;;5060790;28;20030;-84
2023/02/17 10:25:17;;;;;;;9.48;5.10;;;-2.60;85.30;;;;;;5066658;28;20084;-81
2023/02/17 10:27:58;;;;;;;18.60;9.68;;;-2.60;85.70;;;;;;5058921;28;20028;-84
2023/02/17 10:30:41;;;;;;;11.32;7.13;;;-2.80;86.20;;;;;;5058715;28;20028;-84
2023/02/17 10:33:10;;;;;;;14.95;8.50;;;-2.80;86.70;;;;;;5056373;28;20490;-84
2023/02/17 10:35:54;;;;;;;15.63;9.88;;;-2.70;86.90;;;;;;5054668;28;20044;-84
2023/02/17 10:38:46;;;;;;;15.95;11.13;;;-2.50;87.10;;;;;;5055660;28;20024;-84
2023/02/17 10:41:17;;;;;;;17.00;9.82;;;-2.40;87.00;;;;;;5048901;28;20033;-87
2023/02/17 10:43:44;;;;;;;16.58;9.43;;;-2.40;86.50;;;;;;5060893;28;20029;-84
2023/02/17 10:46:14;;;;;;;19.10;9.98;;;-2.40;86.70;;;;;;5081444;28;20037;-83
2023/02/17 10:48:49;;;;;;;15.38;7.55;;;-2.40;87.00;;;;;;5070053;28;20025;-81
2023/02/17 10:51:18;;;;;;;17.50;9.82;;;-2.30;87.30;;;;;;5070791;28;20025;-83
2023/02/17 10:54:14;;;;;;;17.70;9.77;;;-2.30;86.90;;;;;;5057761;28;20024;-83
2023/02/17 10:56:47;;;;;;;12.75;9.70;;;-2.30;86.80;;;;;;5050331;28;20029;-85
2023/02/17 10:59:19;;;;;;;14.73;10.07;;;-2.20;87.20;;;;;;5058948;28;20020;-85
2023/02/17 11:01:45;;;;;;;15.07;10.38;;;-2.10;87.00;;;;;;5072583;28;20112;-83
2023/02/17 11:04:12;;;;;;;14.77;9.55;;;-2.00;86.50;;;;;;5043412;28;20660;-85
2023/02/17 11:06:43;;;;;;;24.20;10.45;;;-2.10;85.90;;;;;;5036543;28;20560;-83
2023/02/17 11:09:18;;;;;;;16.75;9.52;;;-2.30;86.00;;;;;;5053254;28;20492;-86
2023/02/17 11:12:12;;;;;;;15.23;8.93;;;-2.40;86.40;;;;;;5041279;28;20119;-86
2023/02/17 11:14:50;;;;;;;14.98;10.07;;;-2.30;86.90;;;;;;5055185;28;20040;-87
2023/02/17 11:17:27;;;;;;;15.93;9.52;;;-2.30;86.60;;;;;;5072267;28;20025;-86
2023/02/17 11:20:14;;;;;;;15.63;10.60;;;-2.30;86.60;;;;;;5061219;28;20509;-89
2023/02/17 11:22:45;;;;;;;16.58;9.73;;;-2.40;86.20;;;;;;5036314;28;20124;-89
2023/02/17 11:25:27;;;;;;;19.80;12.77;;;-2.30;86.90;;;;;;5066159;28;20021;-84
2023/02/17 11:27:56;;;;;;;17.48;10.88;;;-2.10;86.90;;;;;;5059650;28;20086;-81
2023/02/17 11:30:23;;;;;;;25.38;10.23;;;-1.80;86.80;;;;;;5060837;28;20060;-84
2023/02/17 11:32:50;;;;;;;20.48;11.25;;;-2.00;86.90;;;;;;5059388;28;20036;-85
2023/02/17 11:35:35;;;;;;;21.80;12.05;;;-2.30;88.10;;;;;;5054983;28;20457;-84
2023/02/17 11:38:22;;;;;;;22.13;12.70;;;-2.50;89.90;;;;;;5058653;28;20086;-84
2023/02/17 11:40:59;;;;;;;20.10;12.63;;;-2.60;90.30;;;;;;5044350;28;20034;-84
2023/02/17 11:43:27;;;;;;;26.02;13.23;;;-2.70;90.50;;;;;;5086845;28;20100;-82
2023/02/17 11:46:15;;;;;;;19.90;12.57;;;-2.60;90.50;;;;;;5051463;28;20083;-84
2023/02/17 11:48:54;;;;;;;17.70;13.38;;;-2.50;90.40;;;;;;5054802;28;20386;-84
2023/02/17 11:52:15;;;;;;;21.42;13.65;;;-2.20;90.40;;;;;;5050563;28;20536;-85
2023/02/17 11:55:06;;;;;;;24.02;13.20;;;-2.00;90.10;;;;;;5051863;28;20381;-85
2023/02/17 11:57:50;;;;;;;22.35;11.63;;;-2.00;89.30;;;;;;5062181;28;20035;-86
2023/02/17 12:00:17;;;;;;;25.15;15.02;;;-2.00;88.90;;;;;;5028413;28;20041;-87
2023/02/17 12:03:08;;;;;;;31.38;17.60;;;-2.30;89.20;;;;;;5046556;28;20198;-85
2023/02/17 12:06:05;;;;;;;26.83;15.95;;;-2.40;90.00;;;;;;5062739;28;20017;-85
2023/02/17 12:08:56;;;;;;;30.13;12.52;;;-2.30;90.20;;;;;;5079145;28;20048;-86
2023/02/17 12:11:50;;;;;;;20.95;14.18;;;-2.20;90.20;;;;;;5070430;28;20016;-82
2023/02/17 12:14:31;;;;;;;24.95;13.55;;;-2.30;90.00;;;;;;5079846;28;20036;-83
2023/02/17 12:17:39;;;;;;;22.58;15.25;;;-2.50;89.90;;;;;;5061236;28;20053;-82
2023/02/17 12:20:08;;;;;;;19.90;11.27;;;-2.80;90.10;;;;;;5051127;28;20071;-85
2023/02/17 12:22:53;;;;;;;25.63;11.32;;;-2.80;90.40;;;;;;5060859;28;20100;-84
2023/02/17 12:25:38;;;;;;;26.60;16.02;;;-3.00;90.40;;;;;;5067838;28;20470;-86
2023/02/17 12:28:04;;;;;;;22.40;15.98;;;-3.10;90.70;;;;;;5062005;28;20052;-83
2023/02/17 12:30:35;;;;;;;25.13;15.35;;;-3.00;90.90;;;;;;5078331;28;20060;-84
2023/02/17 12:33:35;;;;;;;24.50;13.02;;;-2.80;91.00;;;;;;5069582;28;20093;-84
2023/02/17 12:36:09;;;;;;;20.35;11.93;;;-2.70;90.80;;;;;;5068273;28;20056;-81
2023/02/17 12:38:41;;;;;;;23.38;12.23;;;-2.80;90.60;;;;;;5047138;28;20053;-82
2023/02/17 12:41:19;;;;;;;24.23;11.95;;;-2.90;90.50;;;;;;5029455;28;20049;-83
2023/02/17 12:43:47;;;;;;;;;;;-3.00;90.60;;;;;;5057222;28;20085;-84
2023/02/17 12:46:27;;;;;;;22.73;14.38;;;-3.00;90.70;;;;;;5045790;28;19916;-82
2023/02/17 12:48:58;;;;;;;23.55;15.75;;;-2.90;90.80;;;;;;5051460;28;20096;-84
2023/02/17 12:51:37;;;;;;;27.40;16.48;;;-2.80;90.80;;;;;;5051603;28;20092;-82
2023/02/17 12:54:16;;;;;;;24.10;13.70;;;-2.80;90.70;;;;;;5079719;28;20025;-86
2023/02/17 12:56:56;;;;;;;22.17;16.23;;;-2.80;90.80;;;;;;5058372;28;20034;-87
2023/02/17 12:59:52;;;;;;;26.83;16.40;;;-2.70;90.90;;;;;;5060009;28;20041;-83